Time;durP1;ratioP1;P1;durP2;ratioP2;P2;SDS_P1;SDS_P2;PMS_P1;PMS_P2;Temp;Humidity;BMP_temperature;BMP_pressure;BME280_temperature;BME280_humidity;BME280_pressure;Samples;Min_cycle;Max_cycle;Signal;HPM_P1;HPM_P2
2021/01/11 00:07:34;;;;;;;36.45;17.00;;;;;;;-4.05;100.00;101113.19;18530047;28;20047;-71
2021/01/11 00:16:35;;;;;;;35.03;16.98;;;;;;;-4.17;100.00;101112.13;18530502;28;20077;-72
2021/01/11 00:25:37;;;;;;;34.63;17.90;;;;;;;-4.36;100.00;101110.94;18543234;28;20117;-72
2021/01/11 00:34:38;;;;;;;36.33;17.40;;;;;;;-4.44;100.00;101110.81;18529906;28;20055;-72
2021/01/11 00:43:39;;;;;;;36.97;18.73;;;;;;;-4.43;100.00;101114.25;18529229;28;20093;-72
2021/01/11 00:52:40;;;;;;;35.38;16.08;;;;;;;-4.53;100.00;101126.00;18528554;28;20756;-72
2021/01/11 01:01:48;;;;;;;32.85;16.00;;;;;;;-4.63;100.00;101125.78;18527240;28;20509;-72
2021/01/11 01:10:49;;;;;;;32.00;16.88;;;;;;;-4.69;100.00;101131.63;18527837;28;20053;-72
2021/01/11 01:19:50;;;;;;;35.40;16.65;;;;;;;-4.71;100.00;101140.09;18526218;28;20055;-72
2021/01/11 01:28:52;;;;;;;36.17;17.35;;;;;;;-4.63;100.00;101149.63;18598206;28;20418;-72
2021/01/11 01:37:53;;;;;;;39.80;20.25;;;;;;;-4.71;100.00;101130.72;18597286;28;20053;-73
2021/01/11 01:46:54;;;;;;;36.63;18.38;;;;;;;-4.74;100.00;101135.78;18597123;28;20042;-72
2021/01/11 01:55:56;;;;;;;34.63;17.20;;;;;;;-4.70;100.00;101147.78;18557375;28;20057;-71
2021/01/11 02:04:57;;;;;;;31.67;16.02;;;;;;;-4.76;100.00;101145.97;18541206;28;20062;-72
2021/01/11 02:14:19;;;;;;;31.27;15.13;;;;;;;-4.80;100.00;101135.66;18547631;28;20463;-71
2021/01/11 02:23:58;;;;;;;30.00;15.17;;;;;;;-4.87;100.00;101132.13;18521269;28;20051;-71
2021/01/11 02:33:04;;;;;;;30.60;15.40;;;;;;;-4.96;100.00;101141.28;18503223;28;20046;-71
2021/01/11 02:42:05;;;;;;;31.85;15.20;;;;;;;-5.05;100.00;101141.13;18503228;28;20082;-71
2021/01/11 02:51:21;;;;;;;35.78;16.25;;;;;;;-4.99;100.00;101142.09;18502802;28;20046;-71
2021/01/11 03:00:22;;;;;;;35.95;15.60;;;;;;;-5.02;100.00;101136.94;18518885;28;20078;-72
2021/01/11 03:09:24;;;;;;;33.78;15.90;;;;;;;-5.05;100.00;101147.09;18520695;28;20051;-72
2021/01/11 03:18:25;;;;;;;35.55;16.67;;;;;;;-5.01;100.00;101137.78;18519089;28;20050;-72
2021/01/11 03:27:26;;;;;;;35.50;19.58;;;;;;;-5.12;100.00;101123.94;18519126;28;20053;-72
2021/01/11 03:36:29;;;;;;;37.20;17.17;;;;;;;-5.28;100.00;101120.22;18532328;28;20074;-72
2021/01/11 03:45:32;;;;;;;32.15;16.30;;;;;;;-5.33;100.00;101116.69;18532077;28;20070;-71
2021/01/11 03:54:34;;;;;;;32.80;16.00;;;;;;;-5.39;100.00;101120.00;18531996;28;20125;-72
2021/01/11 04:03:35;;;;;;;33.58;15.52;;;;;;;-5.51;100.00;101106.97;18529769;28;20076;-71
2021/01/11 04:12:36;;;;;;;31.90;15.98;;;;;;;-5.55;100.00;101095.00;18530514;28;20089;-72
2021/01/11 04:21:40;;;;;;;31.75;15.00;;;;;;;-5.58;100.00;101097.47;18529488;28;20050;-72
2021/01/11 04:30:41;;;;;;;34.25;15.45;;;;;;;-5.56;100.00;101105.16;18528759;28;20093;-72
2021/01/11 04:39:43;;;;;;;34.17;15.35;;;;;;;-5.70;100.00;101112.50;18528440;28;20054;-72
2021/01/11 04:48:44;;;;;;;32.05;14.75;;;;;;;-5.77;100.00;101110.63;18529173;28;20059;-72
2021/01/11 04:57:56;;;;;;;32.13;16.75;;;;;;;-5.74;100.00;101114.09;18527513;28;20071;-71
2021/01/11 05:07:02;;;;;;;33.88;15.88;;;;;;;-5.84;100.00;101124.06;18525799;28;20506;-72
2021/01/11 05:16:14;;;;;;;33.20;14.93;;;;;;;-5.91;100.00;101122.22;18526756;28;20074;-72
2021/01/11 05:25:21;;;;;;;32.00;15.93;;;;;;;-5.89;100.00;101118.03;18525140;28;20535;-71
2021/01/11 05:34:23;;;;;;;34.72;17.40;;;;;;;-5.95;100.00;101111.09;18524645;28;20058;-72
2021/01/11 05:43:24;;;;;;;35.57;17.20;;;;;;;-5.91;100.00;101119.69;18507203;28;20050;-71
2021/01/11 05:52:31;;;;;;;36.35;19.10;;;;;;;-5.92;100.00;101105.22;18522582;28;20306;-71
2021/01/11 06:01:35;;;;;;;36.58;16.77;;;;;;;-6.07;100.00;101100.63;18521814;28;20051;-71
2021/01/11 06:10:39;;;;;;;35.95;18.80;;;;;;;-6.10;100.00;101105.66;18522435;28;20047;-71
2021/01/11 06:19:40;;;;;;;34.87;16.83;;;;;;;-6.12;100.00;101092.88;18521719;28;20132;-72
2021/01/11 06:28:41;;;;;;;37.13;17.63;;;;;;;-6.09;100.00;101098.03;18521317;28;20134;-72
2021/01/11 06:37:44;;;;;;;36.78;17.75;;;;;;;-6.09;100.00;101095.47;18520107;28;20083;-71
2021/01/11 06:46:45;;;;;;;40.03;19.92;;;;;;;-6.17;100.00;101104.63;18520514;28;20062;-72
2021/01/11 06:56:03;;;;;;;38.33;17.27;;;;;;;-6.23;100.00;101114.66;18520551;28;20561;-71
2021/01/11 07:05:04;;;;;;;32.33;15.35;;;;;;;-6.30;100.00;101115.34;18507956;28;20042;-72
2021/01/11 07:14:06;;;;;;;36.75;16.05;;;;;;;-6.32;100.00;101118.66;18520056;28;20142;-72
2021/01/11 07:23:08;;;;;;;32.47;16.13;;;;;;;-6.21;100.00;101127.44;18519809;28;20054;-71
2021/01/11 07:32:09;;;;;;;46.67;22.37;;;;;;;-6.25;100.00;101131.63;18518117;28;20046;-71
2021/01/11 07:41:23;;;;;;;32.72;15.45;;;;;;;-6.17;100.00;101140.28;18519158;28;20051;-71
2021/01/11 07:50:28;;;;;;;35.47;17.15;;;;;;;-6.16;100.00;101133.53;18501691;28;20047;-71
2021/01/11 07:59:29;;;;;;;34.22;15.50;;;;;;;-6.02;99.57;101146.59;18518939;28;20055;-71
2021/01/11 08:08:34;;;;;;;46.65;22.05;;;;;;;-5.85;100.00;101141.06;18517711;28;20047;-72
2021/01/11 08:17:42;;;;;;;60.45;30.90;;;;;;;-5.66;99.83;101124.50;18523112;28;20050;-71
2021/01/11 08:26:49;;;;;;;76.78;35.28;;;;;;;-5.41;100.00;101118.22;18530709;28;20468;-71
2021/01/11 08:35:50;;;;;;;63.47;27.55;;;;;;;-5.07;100.00;101147.88;18529260;28;20042;-71
2021/01/11 08:44:55;;;;;;;46.90;22.50;;;;;;;-4.93;99.64;101149.03;18529379;28;20043;-72
2021/01/11 08:53:58;;;;;;;41.03;18.60;;;;;;;-4.71;98.76;101150.28;18512727;28;20055;-70
2021/01/11 09:02:59;;;;;;;35.97;16.60;;;;;;;-4.50;96.59;101166.91;18510365;28;20082;-70
2021/01/11 09:12:06;;;;;;;38.25;18.83;;;;;;;-4.19;96.85;101159.78;18528323;28;20050;-70
2021/01/11 09:21:07;;;;;;;37.25;18.45;;;;;;;-3.93;97.36;101150.88;18526719;28;20058;-70
2021/01/11 09:30:09;;;;;;;34.80;17.50;;;;;;;-3.70;97.85;101176.78;18524681;28;20392;-69
2021/01/11 09:39:13;;;;;;;34.60;15.83;;;;;;;-3.55;95.59;101180.47;18526615;28;20514;-69
2021/01/11 09:48:18;;;;;;;33.22;15.13;;;;;;;-3.13;93.79;101180.22;18527557;28;20047;-69
2021/01/11 09:57:18;;;;;;;37.85;17.48;;;;;;;-2.79;92.21;101162.72;18525075;28;20053;-70
2021/01/11 10:06:19;;;;;;;31.90;16.02;;;;;;;-2.58;91.83;101158.72;18523974;28;20086;-70
2021/01/11 10:15:21;;;;;;;32.10;15.35;;;;;;;-2.50;90.32;101163.06;18522824;28;20101;-70
2021/01/11 10:24:25;;;;;;;30.10;14.75;;;;;;;-2.04;89.45;101164.38;18522054;28;20093;-72
2021/01/11 10:33:26;;;;;;;28.35;14.25;;;;;;;-1.58;88.36;101161.34;18519473;28;20502;-71
2021/01/11 10:42:27;;;;;;;27.55;13.63;;;;;;;-1.44;87.74;101139.19;18521385;28;20105;-70
2021/01/11 10:51:32;;;;;;;26.02;13.13;;;;;;;-1.60;87.49;101141.66;18521065;28;20130;-69
2021/01/11 11:00:33;;;;;;;24.77;12.60;;;;;;;-1.76;87.42;101143.25;18502834;28;20055;-70
2021/01/11 11:09:34;;;;;;;22.10;11.85;;;;;;;-1.45;86.96;101131.47;18520627;28;20487;-70
2021/01/11 11:18:35;;;;;;;23.45;12.73;;;;;;;-1.22;86.82;101127.34;18519845;28;20121;-70
2021/01/11 11:27:36;;;;;;;22.98;12.07;;;;;;;-1.16;84.53;101109.38;18519887;28;20050;-70
2021/01/11 11:36:38;;;;;;;24.95;12.75;;;;;;;-0.88;85.50;101106.09;18518623;28;20499;-71
2021/01/11 11:45:39;;;;;;;23.60;11.50;;;;;;;-0.55;83.79;101092.47;18519255;28;20097;-71
2021/01/11 11:54:40;;;;;;;23.60;11.65;;;;;;;-0.72;82.67;101076.16;18529435;28;20415;-71
2021/01/11 12:03:40;;;;;;;23.27;11.68;;;;;;;-0.54;82.59;101065.03;18531167;28;20110;-70
2021/01/11 12:12:44;;;;;;;28.98;13.52;;;;;;;-0.41;81.04;101033.38;18529851;28;20554;-70
2021/01/11 12:21:45;;;;;;;30.55;15.38;;;;;;;-0.34;82.72;101021.34;18530649;28;20054;-71
2021/01/11 12:30:46;;;;;;;29.40;16.35;;;;;;;-0.29;83.12;101020.47;18529870;28;20050;-70
2021/01/11 12:39:47;;;;;;;30.65;15.50;;;;;;;-0.33;83.91;101018.78;18530098;28;20081;-70
2021/01/11 12:48:49;;;;;;;32.20;16.50;;;;;;;-0.22;82.95;101014.50;18529168;28;20430;-71
2021/01/11 12:57:50;;;;;;;29.92;15.77;;;;;;;-0.03;81.89;101000.75;18528607;28;20043;-71
2021/01/11 13:06:51;;;;;;;31.83;16.85;;;;;;;0.00;81.21;100995.59;18526175;28;20113;-70
2021/01/11 13:15:52;;;;;;;25.77;13.75;;;;;;;0.15;78.12;100978.41;18527331;28;20073;-71
2021/01/11 13:24:53;;;;;;;29.48;14.27;;;;;;;0.13;76.78;100974.97;18526695;28;20057;-71
2021/01/11 13:33:59;;;;;;;25.75;14.07;;;;;;;-0.03;77.43;100967.28;18525452;28;20565;-71
2021/01/11 13:43:00;;;;;;;30.00;14.13;;;;;;;-0.14;78.07;100961.31;18525332;28;20571;-71
2021/01/11 13:52:01;;;;;;;32.17;15.90;;;;;;;-0.19;80.22;100973.31;18507439;28;20130;-70
2021/01/11 14:01:02;;;;;;;32.55;15.80;;;;;;;0.07;77.08;100962.97;18523702;28;20062;-71
2021/01/11 14:10:05;;;;;;;28.27;14.32;;;;;;;0.31;77.02;100949.16;18523117;28;20089;-71
2021/01/11 14:19:06;;;;;;;30.83;14.53;;;;;;;0.46;75.97;100951.69;18514206;28;20054;-71
2021/01/11 14:28:07;;;;;;;24.77;13.48;;;;;;;0.36;73.64;100955.16;18522378;28;20051;-70
2021/01/11 14:37:08;;;;;;;28.75;14.60;;;;;;;0.23;76.45;100950.94;18521725;28;20053;-70
2021/01/11 14:46:23;;;;;;;32.20;16.10;;;;;;;0.03;76.78;100953.56;18521569;28;20126;-69
2021/01/11 14:55:26;;;;;;;31.00;16.13;;;;;;;-0.16;77.46;100926.19;18521198;28;20559;-69
2021/01/11 15:04:27;;;;;;;30.63;15.32;;;;;;;-0.26;76.94;100935.63;18520851;28;20042;-69
2021/01/11 15:13:28;;;;;;;30.38;15.32;;;;;;;-0.07;75.60;100934.72;18519826;28;20592;-70
2021/01/11 15:22:29;;;;;;;35.25;16.67;;;;;;;-0.34;76.54;100934.75;18519725;28;20403;-70
2021/01/11 15:31:30;;;;;;;35.33;17.23;;;;;;;-0.28;76.18;100921.91;18531981;28;20074;-70
2021/01/11 15:40:31;;;;;;;31.40;16.25;;;;;;;-0.43;77.45;100927.94;18533521;28;20425;-69
2021/01/11 15:49:32;;;;;;;30.27;15.45;;;;;;;-0.46;76.73;100921.94;18519634;28;20051;-69
2021/01/11 15:58:33;;;;;;;34.83;16.67;;;;;;;-0.58;76.50;100921.94;18532895;28;20050;-70
2021/01/11 16:07:34;;;;;;;36.22;17.77;;;;;;;-0.66;77.44;100926.25;18531330;28;20046;-70
2021/01/11 16:16:35;;;;;;;35.35;16.33;;;;;;;-0.75;78.33;100919.38;18513375;28;20047;-69
2021/01/11 16:25:37;;;;;;;36.72;18.70;;;;;;;-0.82;79.22;100921.94;18530419;28;20054;-70
2021/01/11 16:34:39;;;;;;;39.95;18.65;;;;;;;-0.92;80.05;100921.97;18528713;28;20083;-69
2021/01/11 16:43:40;;;;;;;55.57;26.70;;;;;;;-0.92;79.42;100916.81;18528669;28;20483;-70
2021/01/11 16:52:42;;;;;;;41.38;19.27;;;;;;;-0.93;79.53;100898.81;18528485;28;20066;-70
2021/01/11 17:01:43;;;;;;;38.85;18.88;;;;;;;-0.88;79.83;100908.25;18527497;28;20070;-70
2021/01/11 17:10:45;;;;;;;46.25;20.50;;;;;;;-0.85;79.82;100891.97;18528457;28;20058;-70
2021/01/11 17:19:46;;;;;;;41.78;19.27;;;;;;;-0.84;79.65;100865.41;18526406;28;20427;-70
2021/01/11 17:28:51;;;;;;;33.40;17.10;;;;;;;-0.83;78.74;100869.69;18527228;28;20050;-68
2021/01/11 17:37:52;;;;;;;38.78;17.73;;;;;;;-0.83;78.03;100879.13;18519993;28;20576;-69
2021/01/11 17:46:53;;;;;;;37.08;17.08;;;;;;;-0.80;76.83;100895.38;18524295;28;20050;-68
2021/01/11 17:55:55;;;;;;;35.38;17.85;;;;;;;-0.91;77.97;100905.66;18525247;28;20448;-70
2021/01/11 18:04:57;;;;;;;38.72;17.23;;;;;;;-0.92;78.29;100915.97;18523632;28;20070;-71
2021/01/11 18:13:58;;;;;;;33.63;16.52;;;;;;;-0.90;77.88;100907.38;18523265;28;20487;-71
2021/01/11 18:22:59;;;;;;;36.22;17.20;;;;;;;-0.98;78.08;100903.09;18522882;28;20073;-71
2021/01/11 18:32:00;;;;;;;32.25;16.52;;;;;;;-1.04;78.93;100901.38;18521387;28;20051;-71
2021/01/11 18:41:01;;;;;;;41.55;18.88;;;;;;;-0.99;79.48;100894.53;18522145;28;20050;-70
2021/01/11 18:50:03;;;;;;;67.93;27.17;;;;;;;-0.89;77.92;100888.53;18521821;28;20066;-69
2021/01/11 18:59:04;;;;;;;41.23;18.77;;;;;;;-0.82;78.50;100879.13;18520904;28;20050;-69
2021/01/11 19:08:07;;;;;;;39.53;18.45;;;;;;;-1.00;79.41;100877.41;18520043;28;20051;-71
2021/01/11 19:17:08;;;;;;;66.17;29.53;;;;;;;-0.97;78.82;100866.28;18515617;28;20109;-69
2021/01/11 19:26:10;;;;;;;37.05;18.58;;;;;;;-0.96;80.10;100866.25;18520020;28;20046;-70
2021/01/11 19:35:11;;;;;;;41.53;19.88;;;;;;;-0.87;78.70;100839.75;18517801;28;20062;-70
2021/01/11 19:44:13;;;;;;;39.00;19.50;;;;;;;-0.72;79.02;100844.84;18518784;28;20097;-70
2021/01/11 19:53:14;;;;;;;38.80;19.17;;;;;;;-0.69;78.47;100857.69;18504030;28;20074;-70
2021/01/11 20:02:18;;;;;;;35.30;17.55;;;;;;;-0.71;78.99;100856.81;18516425;28;20062;-71
2021/01/11 20:11:19;;;;;;;37.72;18.88;;;;;;;-0.63;77.51;100841.41;18513017;28;20047;-71
2021/01/11 20:20:21;;;;;;;34.85;17.52;;;;;;;-0.59;77.30;100849.09;18531103;28;20086;-70
2021/01/11 20:29:22;;;;;;;36.53;17.25;;;;;;;-0.53;76.62;100819.97;18531028;28;20078;-73
2021/01/11 20:38:23;;;;;;;33.05;16.90;;;;;;;-0.75;78.06;100797.72;18528781;28;20526;-72
2021/01/11 20:47:24;;;;;;;36.28;18.70;;;;;;;-0.79;78.65;100793.47;18529761;28;20051;-70
2021/01/11 20:56:25;;;;;;;36.05;17.83;;;;;;;-0.91;79.35;100776.34;18529290;28;20054;-69
2021/01/11 21:05:26;;;;;;;34.08;17.85;;;;;;;-0.90;78.14;100781.47;18521665;28;20062;-71
2021/01/11 21:14:28;;;;;;;39.28;18.92;;;;;;;-0.78;77.99;100787.47;18533843;28;20051;-70
2021/01/11 21:23:29;;;;;;;39.60;17.83;;;;;;;-0.66;77.52;100760.00;18521642;28;20050;-70
2021/01/11 21:32:30;;;;;;;40.42;18.50;;;;;;;-0.66;76.53;100759.19;18531776;28;20502;-70
2021/01/11 21:41:36;;;;;;;38.03;18.05;;;;;;;-0.55;75.44;100767.69;18558891;28;20113;-70
2021/01/11 21:50:37;;;;;;;32.17;17.02;;;;;;;-0.60;74.53;100744.56;18524356;28;20047;-69
2021/01/11 21:59:38;;;;;;;35.55;17.67;;;;;;;-0.50;73.74;100743.69;18533248;28;20058;-70
2021/01/11 22:08:40;;;;;;;31.40;15.45;;;;;;;-0.71;75.67;100720.63;18521886;28;20101;-70
2021/01/11 22:17:41;;;;;;;34.00;16.90;;;;;;;-0.67;74.42;100726.63;18527287;28;20128;-70
2021/01/11 22:26:43;;;;;;;38.80;19.67;;;;;;;-0.78;74.60;100725.78;18522088;28;20877;-71
2021/01/11 22:35:45;;;;;;;39.67;17.60;;;;;;;-0.71;74.48;100700.06;18520570;28;20059;-70
2021/01/11 22:44:46;;;;;;;37.40;17.83;;;;;;;-0.64;75.50;100680.34;18522150;28;20062;-70
2021/01/11 22:53:47;;;;;;;38.20;17.70;;;;;;;-0.80;75.91;100653.84;18520873;28;20054;-71
2021/01/11 23:02:48;;;;;;;36.38;17.67;;;;;;;-0.86;76.26;100651.28;18506839;28;20040;-70
2021/01/11 23:11:50;;;;;;;42.30;18.55;;;;;;;-0.68;74.56;100669.22;18503649;28;20053;-70
2021/01/11 23:20:51;;;;;;;35.22;17.35;;;;;;;-0.61;74.16;100650.31;18518853;28;20554;-70
2021/01/11 23:29:52;;;;;;;37.15;17.67;;;;;;;-0.70;74.46;100616.97;18518876;28;20055;-71
2021/01/11 23:38:53;;;;;;;38.28;17.88;;;;;;;-0.74;74.56;100601.56;18589735;28;20359;-70
2021/01/11 23:47:54;;;;;;;39.03;17.48;;;;;;;-0.67;74.27;100600.69;18596600;28;20081;-69
2021/01/11 23:56:55;;;;;;;39.38;17.83;;;;;;;-0.61;74.57;100578.34;18604618;28;20057;-70
